world map with ACI marked

ACI - Airport

This information may not be accurate or current and is not valid for navigation or flight planning. No warranty of fitness for any purpose is made or implied.

flag of Guernsey

Donate via PayPal

Additional information is available on the NEW Great Circle Mapper

Location
City:  Alderney, Guernsey
Name:The Blaye
ICAO / IATA:EGJA / ACI

Details
Type:Airport (Aerodrome, Airfield)
Use:Public/Civil
Latitude:49°42'24"N (49.706758)
Longitude:2°12'52"W (-2.214480)
Elevation:290 ft (88 m)
Runways:3
Longest:2877 × 59 ft (877 × 18 m)

Time
Timezone:UTC+0 (DST+3)
Local Time:

Weather
METAR:EGJA  041350Z 19015KT 9999 BKN010 08/07 Q1018
TAF:EGJA  (expired)

Related Locations
Nearby:
Farthest:NZDC: 12006 mi / 19322 km
Dunedin [City Heliport], OTA, NZ

Find:

   beyond  
but within

Other Information
Maps:
Links:
Sources:

  

Airport Diagram

Airport diagram for ACI

Airport diagram PDF

 


Great Circle Mapper   Great Circle Mapper
Great Circle Mapper FAQ   Great Circle Mapper FAQ
  Karl's Home Page
KLSē   KLSē Home
   GC on Facebook
Airlines of the World   Airlines of the World
Donate via PayPal


Copyright © 2004-2019, Karl L. Swartz. All rights reserved.
All trademarks mentioned herein belong to their respective owners.

Please see credits for attribution and copyright information.

Karl Swartz <karl@kls2.com>
  Powered by FreeBSD
Valid HTML 4.01!
Labeled with ICRA
hCard Microformat
Geo Microformat